Airfield :
LOGIN :

Register | Disclaimer

   EN    FR    IT 

 










Legend :    VFR   Marginal VFR   IFR   Intensive IFR   Very Intensive IFR
Visi :
Ceiling :
>= 8 km
>= 3000ft
5 to 8 km
1000 to 3000 ft
1500m to 5 km
500 to 1000 ft
800 to 1500m
200 to 500 ft
< 800m
< 200 ft
Symbols :   Thunderstorms  Fog  Heavy snow  Heavy precipitations  Wind > 20 kt
SIGMETs :     Misc.  Thunderstorms  Icing  Turbulence  Mountain Waves  Volcanic Ashes







- Airport Elevation : 184 ft
- IATA code : BRU


EBBR - Bruxelles

CURRENT METAR :
  • 221020Z 24012KT 9999 FEW026 SCT032 16/08 Q1020 NOSIG

EXPIRED METARs :
  • 220950Z 25011KT 220V280 9999 FEW025 16/08 Q1020 NOSIG
  • 220920Z 23011KT 9999 FEW031 15/09 Q1021 NOSIG
  • 220850Z 22010KT 9999 FEW023 SCT030 14/09 Q1021 NOSIG
  • 220820Z 23008KT 200V260 9999 FEW031 SCT037 13/09 Q1021 NOSIG
  • 220750Z 22009KT 9999 FEW038 SCT042 13/09 Q1021 NOSIG

TAF TAF EBBR
Valid from the 22 at 06:00 until the 23 at 12:00 UTC


220500Z 2206/2312 23010KT 9999 SCT030
PROB30
TEMPO 2220/2224 4500 RA
BECMG 2223/2301 14005KT BKN014
TEMPO 2300/2310 4500 -RADZ BKN008
PROB30
TEMPO 2303/2309 2500 -DZRA BKN004
PROB40
TEMPO 2310/2312 36015G25KT 3500 RA SHRA BKN006 BKN014CB
No reported NOTAMs for that airfield.



MET'MAP, your aeronautical weather chart ! - Copyright ORBIFLY December 2007 - Disclaimer

ORBIFLY MET'MAP TEAM :

Programming & Development : Alexandra Zaïnal
Concept & Development : Baudouin d'Aumeries
Co-Development & Prog : Marc-Olivier Méhu
Technical & hardware support : Manuel Goepfert

Contact : metmap@orbifly.com




SOURCES & CREDITS :

   NOAA